Weather at Memorial Hospital of Taylor County Heliport

Public forecast

Using degrees Fahrenheit for public forecast. Weather courtesy of forecast.io.

Closest aviation weather report (METAR) to Memorial Hospital of Taylor County Heliport

Closest report is Taylor County Airport, 3.1 nm (5.7 km) SE. Retrieved 2021/06/23 02:15 UTC (21 minutes ago):

KMDZ 230215Z AUTO 16003KT 10SM CLR 12/06 A2992 RMK AO2 T01190063

Closest aviation forecast (TAF) to Memorial Hospital of Taylor County Heliport

Closest forecast is Wausau Downtown Airport, 33.4 nm (61.9 km) ESE. Retrieved 2021-06-23 00:39 UTC (2 hours ago):

TAF KAUW 222336Z 2300/2324 25006KT P6SM SCT070 FM230300 15004KT P6SM SCT250 FM231000 16005KT P6SM BKN070 FM231200 16005KT P6SM BKN050 TEMPO 2313/2317 BKN015 FM231700 19008G15KT P6SM BKN025 FM231900 19009G16KT P6SM SCT035